Udall, Kansas
Current Conditions -  °F | °C
As of 3:54 PM on Saturday 20 Dec 2014 (Local Time) from KWLD Reporting Station
Overcast Overcast  
Wind Chill: 41°   Ceiling: 2700
Heat Index: 46°   Visibility: 10mi
Dew Point: 37°   Wind: 12mph
Humidity: 71%   Direction: 210°SSW
Pressure: 30.13"   Gusts: NA
Location:  37.39°N, 97.11°W
Report Text: KWLD 202154Z AUTO 21010KT 10SM OVC027 08/03 A3013 RMK AO2 SLP209 T00780028
Loading
Personal Weather Stations






























Interactive Weather Map New forecast layout! Learn more

10-Day Weather Forecast

Advertisements
Track Severe Weather on mobile